Time;durP1;ratioP1;P1;durP2;ratioP2;P2;SDS_P1;SDS_P2;PMS_P1;PMS_P2;Temp;Humidity;BMP_temperature;BMP_pressure;BME280_temperature;BME280_humidity;BME280_pressure;Samples;Min_cycle;Max_cycle;Signal;HPM_P1;HPM_P2
2022/12/07 00:01:07;;;;;;;;;59.00;45.75;;;;;5.88;73.17;-19370.84;4994347;28;47921;-90
2022/12/07 00:03:33;;;;;;;;;58.75;49.00;;;;;5.88;73.28;-19370.84;4992627;28;45557;-91
2022/12/07 00:05:59;;;;;;;;;56.75;46.25;;;;;6.22;73.07;-19379.81;4995924;28;45654;-90
2022/12/07 00:08:25;;;;;;;;;63.25;49.25;;;;;5.59;72.79;-19363.13;4995095;28;45639;-90
2022/12/07 00:10:50;;;;;;;;;60.50;45.75;;;;;6.18;73.38;-19378.84;5003641;28;48533;-91
2022/12/07 00:13:15;;;;;;;;;60.25;48.00;;;;;5.66;73.04;-19365.16;4992526;28;45407;-91
2022/12/07 00:15:41;;;;;;;;;60.75;46.75;;;;;5.61;73.38;-19363.66;4973519;28;45462;-90
2022/12/07 00:18:06;;;;;;;;;56.25;46.00;;;;;5.49;73.20;-19360.69;4991479;28;45504;-91
2022/12/07 00:20:32;;;;;;;;;53.00;43.00;;;;;5.61;73.35;-19363.78;4992512;28;47945;-91
2022/12/07 00:22:58;;;;;;;;;60.00;45.25;;;;;5.81;73.49;-19368.94;4978698;28;45920;-91
2022/12/07 00:25:24;;;;;;;;;59.25;45.75;;;;;5.98;73.48;-19373.56;5003687;28;46024;-90
2022/12/07 00:27:50;;;;;;;;;58.00;46.25;;;;;6.01;73.69;-19374.38;4975438;28;45456;-90
2022/12/07 00:30:15;;;;;;;;;56.25;42.75;;;;;5.82;73.21;-19369.22;4989818;28;47564;-91
2022/12/07 00:32:40;;;;;;;;;60.50;45.75;;;;;5.84;73.60;-19369.91;4993980;28;45538;-91
2022/12/07 00:35:06;;;;;;;;;55.75;46.75;;;;;6.24;73.18;-19380.47;4974838;28;45509;-92
2022/12/07 00:37:31;;;;;;;;;60.50;45.75;;;;;6.10;73.01;-19376.81;5003689;28;45585;-91
2022/12/07 00:39:57;;;;;;;;;54.50;46.00;;;;;5.88;73.26;-19370.84;4994224;28;46996;-90
2022/12/07 00:42:22;;;;;;;;;59.00;46.50;;;;;5.72;73.08;-19366.78;4986447;28;45574;-89
2022/12/07 11:38:52;;;;;;;;;35.50;32.00;;;;;10.06;71.23;-19481.38;5044877;23;45978;-95
2022/12/07 11:41:23;;;;;;;;;28.75;27.25;;;;;9.27;70.94;-19460.44;5049358;28;45566;-92
2022/12/07 11:44:20;;;;;;;;;26.67;25.67;;;;;9.94;70.93;-19478.13;5043117;28;45264;-93
2022/12/07 11:46:48;;;;;;;;;30.75;28.75;;;;;9.92;71.01;-19477.59;5033656;28;45425;-93
2022/12/07 11:49:39;;;;;;;;;37.00;31.33;;;;;9.91;71.15;-19477.31;5035241;28;45760;-96
2022/12/07 11:52:26;;;;;;;;;39.25;33.00;;;;;9.43;71.46;-19464.63;5038528;28;45286;-94
2022/12/07 11:54:53;;;;;;;;;30.25;28.75;;;;;9.39;71.16;-19463.69;4924291;28;45337;-93
2022/12/07 11:57:39;;;;;;;;;30.25;27.50;;;;;9.15;70.98;-19457.19;4934521;28;45801;-91
2022/12/07 12:00:14;;;;;;;;;34.00;28.67;;;;;9.93;71.35;-19477.88;4936040;28;47305;-92
2022/12/07 12:03:01;;;;;;;;;43.25;35.75;;;;;10.02;71.23;-19480.16;4923605;28;45465;-91
2022/12/07 12:05:28;;;;;;;;;45.25;34.50;;;;;9.68;70.70;-19471.25;4943248;28;45719;-88
2022/12/07 12:08:13;;;;;;;;;51.25;38.50;;;;;10.07;70.58;-19481.50;4931698;28;45765;-88
2022/12/07 12:11:17;;;;;;;;;42.50;37.25;;;;;10.10;70.82;-19482.31;4921216;28;47325;-92
2022/12/07 12:14:14;;;;;;;;;48.50;40.25;;;;;9.65;71.04;-19470.56;4901247;28;45469;-89
2022/12/07 12:17:06;;;;;;;;;12.00;3.00;;;;;10.15;70.74;-19483.66;4897676;28;45556;-94
2022/12/07 12:19:44;;;;;;;;;30.75;27.75;;;;;9.99;70.41;-19479.34;4898244;28;45486;-93
2022/12/07 12:22:20;;;;;;;;;29.67;27.33;;;;;9.77;71.08;-19473.69;4902736;28;48409;-91
2022/12/07 12:24:52;;;;;;;;;31.67;25.33;;;;;10.29;70.73;-19487.31;4899917;28;45586;-91
2022/12/07 12:27:26;;;;;;;;;32.00;26.67;;;;;10.04;70.57;-19480.84;4900597;28;45979;-92
2022/12/07 12:29:58;;;;;;;;;26.33;26.33;;;;;10.46;70.19;-19491.91;4901246;28;45524;-93
2022/12/07 12:32:40;;;;;;;;;29.67;26.67;;;;;10.44;70.23;-19491.22;4949297;28;46835;-91
2022/12/07 12:35:36;;;;;;;;;24.00;22.00;;;;;10.89;69.39;-19503.25;4955352;28;45445;-89
2022/12/07 12:38:24;;;;;;;;;32.33;28.33;;;;;10.36;68.88;-19489.22;4953774;28;45627;-90
2022/12/07 12:40:50;;;;;;;;;26.67;24.67;;;;;10.86;69.04;-19502.28;4944535;28;45467;-92
2022/12/07 12:43:52;;;;;;;;;35.67;29.00;;;;;10.99;69.33;-19505.94;4958692;28;47156;-92
2022/12/07 12:52:42;;;;;;;;;27.33;24.33;;;;;11.14;68.52;-19509.72;5030739;28;45616;-83
2022/12/07 13:01:29;;;;;;;;;33.00;31.33;;;;;11.27;68.75;-19513.22;5558475;22;45651;-84
2022/12/07 13:03:55;;;;;;;;;26.00;24.33;;;;;10.68;68.46;-19497.72;4948328;28;45588;-84
2022/12/07 13:09:45;;;;;;;;;22.33;21.00;;;;;11.08;68.05;-19508.09;4948839;28;45676;-85
2022/12/07 13:12:16;;;;;;;;;27.00;24.00;;;;;10.34;67.93;-19488.81;4942688;28;45669;-84
2022/12/07 13:14:58;;;;;;;;;22.67;19.00;;;;;11.23;67.55;-19512.00;4949142;28;45597;-85
2022/12/07 13:20:58;;;;;;;;;21.00;18.00;;;;;10.34;66.79;-19488.81;4951280;28;45533;-85
2022/12/07 13:29:21;;;;;;;;;22.00;18.33;;;;;10.42;67.14;-19490.81;5536043;22;45962;-83
2022/12/07 13:31:55;;;;;;;;;23.33;21.33;;;;;9.96;67.22;-19478.69;5016801;28;45495;-83
2022/12/07 13:37:19;;;;;;;;;21.00;17.67;;;;;10.66;67.51;-19497.03;5108442;22;57884;-82
2022/12/07 13:43:22;;;;;;;;;23.00;21.33;;;;;11.41;67.37;-19516.84;5171688;22;45466;-88
2022/12/07 13:46:31;;;;;;;;;24.67;21.67;;;;;11.48;66.95;-19518.59;5008941;28;45542;-83
2022/12/07 13:49:00;;;;;;;;;24.33;18.67;;;;;11.35;67.14;-19515.22;5013213;28;45592;-85
2022/12/07 13:55:13;;;;;;;;;20.00;17.33;;;;;10.96;66.78;-19505.13;5163901;22;45528;-83
2022/12/07 13:57:39;;;;;;;;;32.67;24.33;;;;;10.05;66.67;-19480.97;5013965;28;45472;-83
2022/12/07 14:00:13;;;;;;;;;29.33;24.00;;;;;10.09;66.96;-19482.06;5010566;28;45430;-82
2022/12/07 14:06:27;;;;;;;;;21.33;19.33;;;;;11.14;66.97;-19509.84;5156339;22;46263;-86
2022/12/07 14:09:59;;;;;;;;;;;;;;;;;;;;;
2022/12/07 14:18:52;;;;;;;;;20.00;14.33;;;;;9.86;67.28;-19475.97;5022648;22;45436;-84
2022/12/07 14:21:40;;;;;;;;;12.00;12.00;;;;;10.92;67.30;-19503.91;5007760;28;45778;-84
2022/12/07 14:27:33;;;;;;;;;18.67;17.67;;;;;9.11;67.19;-19456.25;5021491;22;45493;-83
2022/12/07 14:36:42;;;;;;;;;23.67;18.67;;;;;9.24;67.30;-19459.78;5049473;23;46134;-84
2022/12/07 14:39:08;;;;;;;;;27.33;22.67;;;;;9.18;67.72;-19458.03;5036855;22;47586;-84
2022/12/07 14:41:51;;;;;;;;;29.67;25.00;;;;;9.76;67.78;-19473.41;5007150;28;45360;-84
2022/12/07 14:44:19;;;;;;;;;27.00;22.67;;;;;9.37;67.34;-19463.16;5009486;28;45701;-84
2022/12/07 14:46:46;;;;;;;;;23.67;22.00;;;;;10.19;67.18;-19484.75;5015823;28;45734;-84
2022/12/07 14:49:12;;;;;;;;;18.33;18.33;;;;;10.35;67.08;-19489.06;5010887;28;46415;-84
2022/12/07 14:51:40;;;;;;;;;16.00;15.33;;;;;10.43;67.45;-19491.09;5008498;28;45784;-85
2022/12/07 14:56:43;;;;;;;;;16.67;15.33;;;;;10.07;66.84;-19481.66;5739860;22;45189;-85
2022/12/07 15:02:09;;;;;;;;;12.33;11.33;;;;;10.99;67.25;-19505.78;4997397;28;45788;-85
2022/12/07 15:04:34;;;;;;;;;15.33;14.00;;;;;10.98;67.41;-19505.66;5014954;28;45323;-87
2022/12/07 15:07:16;;;;;;;;;15.33;15.00;;;;;10.33;67.14;-19488.53;5016411;28;45350;-86
2022/12/07 15:15:50;;;;;;;;;17.00;14.33;;;;;10.78;67.69;-19500.41;5044140;28;45542;-83
2022/12/07 15:23:32;;;;;;;;;17.33;15.00;;;;;10.33;67.92;-19488.41;5237580;22;45379;-88
2022/12/07 15:25:57;;;;;;;;;21.67;19.00;;;;;10.03;67.95;-19480.44;5008578;28;45698;-87
2022/12/07 15:28:23;;;;;;;;;20.67;20.00;;;;;10.04;68.25;-19480.84;5019736;28;45545;-88
2022/12/07 15:30:48;;;;;;;;;21.00;20.67;;;;;10.49;68.00;-19492.59;5013707;28;46590;-85
2022/12/07 15:33:14;;;;;;;;;24.00;17.67;;;;;10.01;68.28;-19480.03;5016185;28;46217;-86
2022/12/07 15:35:44;;;;;;;;;18.33;14.33;;;;;10.37;68.27;-19489.47;5020163;28;45470;-86
2022/12/07 15:38:09;;;;;;;;;26.00;21.00;;;;;9.95;68.32;-19478.41;5023089;28;45458;-86
2022/12/07 15:40:35;;;;;;;;;7.67;6.67;;;;;9.95;68.78;-19478.41;5013602;28;48143;-87
2022/12/07 15:43:01;;;;;;;;;22.67;21.67;;;;;9.64;68.49;-19470.16;5013843;28;45691;-87
2022/12/07 15:45:26;;;;;;;;;26.67;22.33;;;;;9.70;68.91;-19471.78;5014906;28;45430;-87
2022/12/07 15:47:52;;;;;;;;;16.67;15.00;;;;;10.42;69.13;-19490.69;5016014;28;45378;-89
2022/12/07 15:50:17;;;;;;;;;19.67;15.33;;;;;10.39;68.77;-19490.00;5021738;28;45558;-88
2022/12/07 15:52:43;;;;;;;;;20.33;18.33;;;;;10.35;68.96;-19488.94;5030243;28;45342;-87
2022/12/07 15:55:09;;;;;;;;;22.00;17.00;;;;;10.32;69.04;-19488.13;5028252;28;45377;-88
2022/12/07 15:57:37;;;;;;;;;21.00;18.00;;;;;9.77;69.08;-19473.56;5008494;28;45569;-88
2022/12/07 16:00:08;;;;;;;;;27.00;22.67;;;;;10.28;69.39;-19487.19;5024044;28;48918;-88
2022/12/07 16:02:34;;;;;;;;;22.67;19.67;;;;;10.12;69.06;-19482.88;5025935;28;45343;-88
2022/12/07 16:04:59;;;;;;;;;25.00;20.67;;;;;9.71;69.16;-19472.19;5027249;28;45497;-89
2022/12/07 16:07:24;;;;;;;;;23.67;17.67;;;;;10.01;69.43;-19480.03;5006443;28;45324;-89
2022/12/07 16:09:50;;;;;;;;;22.67;19.67;;;;;10.02;69.01;-19480.31;5016679;28;45955;-89
2022/12/07 16:12:16;;;;;;;;;22.00;21.67;;;;;9.39;68.94;-19463.69;5014467;28;45434;-89
2022/12/07 16:14:41;;;;;;;;;24.33;21.67;;;;;9.35;69.01;-19462.59;5023065;28;45822;-88
2022/12/07 16:17:08;;;;;;;;;24.67;24.67;;;;;10.26;69.25;-19486.50;5012791;28;45716;-89
2022/12/07 16:19:34;;;;;;;;;29.33;24.00;;;;;9.24;68.96;-19459.63;5010830;28;46724;-88
2022/12/07 16:22:00;;;;;;;;;20.67;20.00;;;;;10.07;69.02;-19481.66;5014176;28;45446;-89
2022/12/07 16:24:25;;;;;;;;;21.67;18.33;;;;;9.84;68.92;-19475.44;5001165;28;45509;-90
2022/12/07 16:26:51;;;;;;;;;25.67;24.00;;;;;9.52;69.04;-19467.06;4985673;28;45432;-89
2022/12/07 16:29:20;;;;;;;;;23.67;21.33;;;;;10.21;69.32;-19485.16;4996869;28;47275;-90
2022/12/07 16:31:46;;;;;;;;;27.33;25.33;;;;;9.66;69.30;-19470.72;4991790;28;45970;-95
2022/12/07 16:34:11;;;;;;;;;24.00;22.00;;;;;9.61;69.65;-19469.50;5009245;28;45514;-87
2022/12/07 16:36:37;;;;;;;;;27.00;24.33;;;;;10.08;69.46;-19481.78;5002761;28;45406;-88
2022/12/07 16:39:03;;;;;;;;;23.00;23.00;;;;;9.64;69.45;-19470.31;5001023;28;45519;-89
2022/12/07 16:41:29;;;;;;;;;27.75;27.75;;;;;9.89;69.64;-19476.91;5006859;28;45503;-89
2022/12/07 16:43:55;;;;;;;;;35.50;30.25;;;;;10.00;69.81;-19479.63;4999629;28;45411;-88
2022/12/07 16:46:20;;;;;;;;;32.25;28.75;;;;;9.21;69.81;-19458.81;4998134;28;45511;-89
2022/12/07 16:48:45;;;;;;;;;37.00;31.00;;;;;9.67;70.07;-19470.97;4993545;28;48351;-86
2022/12/07 16:51:13;;;;;;;;;31.00;26.33;;;;;9.22;70.16;-19459.09;5004744;28;45399;-89
2022/12/07 16:53:40;;;;;;;;;30.25;28.25;;;;;9.58;70.06;-19468.56;4980394;28;45406;-89
2022/12/07 16:56:16;;;;;;;;;30.25;25.00;;;;;9.43;70.24;-19464.63;4975202;28;45578;-87
2022/12/07 16:58:43;;;;;;;;;38.00;33.50;;;;;9.87;70.24;-19476.38;4995281;28;48561;-90
2022/12/07 17:01:17;;;;;;;;;35.50;32.75;;;;;9.56;70.55;-19468.00;4989861;28;45532;-89
2022/12/07 17:03:43;;;;;;;;;42.25;34.25;;;;;9.81;70.86;-19474.75;4979754;28;45606;-90
2022/12/07 17:06:20;;;;;;;;;35.75;31.25;;;;;9.29;70.80;-19460.97;5003873;28;45496;-89
2022/12/07 17:08:46;;;;;;;;;35.00;29.50;;;;;9.25;70.35;-19460.03;5015026;28;47237;-89
2022/12/07 17:11:26;;;;;;;;;35.25;31.75;;;;;9.73;70.44;-19472.59;4998826;28;45396;-89
2022/12/07 17:16:37;;;;;;;;;35.00;30.25;;;;;9.43;70.74;-19464.78;4992520;28;45494;-88
2022/12/07 17:19:07;;;;;;;;;38.00;32.25;;;;;9.65;70.63;-19470.56;4999014;28;48548;-89
2022/12/07 17:21:33;;;;;;;;;44.75;36.25;;;;;9.27;70.73;-19460.59;4998500;28;45321;-89
2022/12/07 17:24:00;;;;;;;;;52.25;41.75;;;;;9.54;71.11;-19467.47;5014377;28;45422;-88
2022/12/07 17:26:27;;;;;;;;;50.25;41.00;;;;;9.34;71.30;-19462.19;5016917;28;45467;-87
2022/12/07 17:28:52;;;;;;;;;52.25;40.50;;;;;8.84;70.91;-19449.09;5000599;28;48162;-88
2022/12/07 17:31:20;;;;;;;;;46.25;38.75;;;;;9.38;71.25;-19463.41;5004544;28;45426;-88
2022/12/07 17:33:45;;;;;;;;;46.00;36.75;;;;;8.51;70.89;-19440.31;5014623;28;45812;-87
2022/12/07 17:36:16;;;;;;;;;39.50;35.25;;;;;8.98;71.33;-19452.75;5009084;28;45473;-88
2022/12/07 17:38:42;;;;;;;;;36.00;32.00;;;;;8.69;71.25;-19445.19;5008080;28;48044;-88
2022/12/07 17:44:16;;;;;;;;;45.25;38.25;;;;;9.01;71.43;-19453.56;4994542;28;45462;-88
2022/12/07 17:46:43;;;;;;;;;41.50;35.25;;;;;9.11;71.56;-19456.13;4995020;28;45464;-88
2022/12/07 17:49:08;;;;;;;;;45.00;35.75;;;;;8.51;71.94;-19440.31;4994310;28;47196;-88
2022/12/07 17:54:19;;;;;;;;;40.25;35.00;;;;;8.31;71.90;-19435.16;4992975;28;45561;-88
2022/12/07 17:56:45;;;;;;;;;41.25;31.00;;;;;8.59;72.31;-19442.63;4992012;28;45584;-89
2022/12/07 17:59:10;;;;;;;;;42.25;34.25;;;;;8.80;71.73;-19448.16;4972538;28;47234;-91
2022/12/07 18:01:37;;;;;;;;;29.75;29.25;;;;;8.52;72.09;-19440.59;4980444;28;45572;-91
2022/12/07 18:04:03;;;;;;;;;37.75;34.25;;;;;8.73;72.12;-19446.25;4994259;28;45612;-88
2022/12/07 18:06:29;;;;;;;;;35.50;31.75;;;;;8.89;71.63;-19450.44;4975779;28;45514;-92
2022/12/07 18:08:54;;;;;;;;;36.25;32.00;;;;;8.76;71.88;-19446.94;4977098;28;47174;-86
2022/12/07 18:11:20;;;;;;;;;37.75;32.50;;;;;8.27;71.85;-19434.09;4993625;28;47201;-86
2022/12/07 18:13:45;;;;;;;;;37.25;33.75;;;;;8.65;71.81;-19444.22;4986216;28;45796;-86
2022/12/07 18:16:17;;;;;;;;;43.50;34.50;;;;;8.80;72.14;-19448.16;4989581;28;45585;-89
2022/12/07 18:18:44;;;;;;;;;37.75;34.00;;;;;7.97;71.88;-19426.25;4991538;28;46409;-87
2022/12/07 18:21:15;;;;;;;;;38.75;35.50;;;;;8.81;72.01;-19448.28;4996203;28;45468;-90
2022/12/07 18:23:42;;;;;;;;;44.00;34.75;;;;;8.29;71.53;-19434.50;5000512;28;45791;-91
2022/12/07 18:26:08;;;;;;;;;32.25;30.75;;;;;8.70;71.89;-19445.31;4977527;28;45534;-90
2022/12/07 18:28:33;;;;;;;;;34.75;29.50;;;;;8.36;71.83;-19436.53;5004610;28;48584;-90
2022/12/07 18:30:59;;;;;;;;;35.00;29.75;;;;;7.85;71.43;-19423.00;4998694;28;45393;-90
2022/12/07 18:33:25;;;;;;;;;31.00;28.25;;;;;8.93;71.36;-19451.53;4992946;28;45469;-93
2022/12/07 18:35:50;;;;;;;;;29.33;27.00;;;;;8.96;71.32;-19452.22;4977350;28;45586;-87
2022/12/07 18:38:16;;;;;;;;;23.33;19.33;;;;;8.13;71.12;-19430.31;4985753;28;46457;-88
2022/12/07 18:40:43;;;;;;;;;29.00;26.33;;;;;9.03;70.96;-19454.09;5008060;28;45519;-88
2022/12/07 18:43:10;;;;;;;;;28.00;24.33;;;;;8.63;70.74;-19443.56;4993730;28;45483;-88
2022/12/07 18:45:36;;;;;;;;;25.33;24.00;;;;;9.09;70.74;-19455.84;4986419;28;45471;-87
2022/12/07 18:48:02;;;;;;;;;27.00;22.33;;;;;8.55;71.02;-19441.41;5001753;28;47048;-88
2022/12/07 18:50:29;;;;;;;;;27.67;26.00;;;;;8.74;70.62;-19446.41;4991917;28;45590;-88
2022/12/07 18:52:57;;;;;;;;;23.00;20.67;;;;;8.60;70.43;-19442.88;4978029;28;45566;-88
2022/12/07 18:55:24;;;;;;;;;22.33;20.67;;;;;7.67;69.99;-19418.25;4996358;28;45419;-88
2022/12/07 18:57:50;;;;;;;;;26.67;24.33;;;;;8.86;70.35;-19449.78;5006192;28;48204;-88
2022/12/07 19:00:16;;;;;;;;;29.00;23.33;;;;;8.37;70.16;-19436.66;5000854;28;45614;-88
2022/12/07 19:02:42;;;;;;;;;19.00;16.67;;;;;7.71;70.02;-19419.34;4995382;28;45786;-88
2022/12/07 19:05:08;;;;;;;;;21.67;20.67;;;;;8.44;69.93;-19438.69;5000984;28;45530;-88
2022/12/07 19:07:33;;;;;;;;;27.00;24.33;;;;;8.99;69.94;-19453.16;4987930;28;46576;-88
2022/12/07 19:09:58;;;;;;;;;29.67;25.00;;;;;8.71;69.98;-19445.72;4997761;28;45483;-87
2022/12/07 19:12:23;;;;;;;;;28.00;25.33;;;;;8.76;69.87;-19446.94;4998563;28;45492;-88
2022/12/07 19:14:49;;;;;;;;;24.33;22.33;;;;;8.97;70.20;-19452.47;5010454;28;45569;-87
2022/12/07 19:17:14;;;;;;;;;30.33;24.00;;;;;8.75;69.56;-19446.66;4997271;28;45562;-87
2022/12/07 19:19:45;;;;;;;;;23.33;23.33;;;;;8.84;69.63;-19449.09;4989837;28;45773;-88
2022/12/07 19:22:14;;;;;;;;;20.67;20.33;;;;;9.33;69.81;-19461.94;4992665;28;45582;-90
2022/12/07 19:24:40;;;;;;;;;27.67;24.67;;;;;8.74;69.78;-19446.53;4995454;28;45487;-88
2022/12/07 19:27:07;;;;;;;;;34.00;29.25;;;;;9.33;69.49;-19462.06;5011293;28;47340;-93
2022/12/07 19:29:33;;;;;;;;;29.67;28.00;;;;;9.33;69.59;-19461.94;5010629;28;45562;-91
2022/12/07 19:32:00;;;;;;;;;31.33;29.00;;;;;9.12;69.27;-19456.53;5008833;28;45861;-86
2022/12/07 19:34:25;;;;;;;;;32.33;31.33;;;;;9.12;69.47;-19456.53;5009084;28;45471;-91
2022/12/07 19:36:51;;;;;;;;;34.25;30.00;;;;;9.26;69.54;-19460.31;4996234;28;47080;-89
2022/12/07 19:39:17;;;;;;;;;34.50;31.50;;;;;9.15;69.76;-19457.34;5000452;28;45849;-89
2022/12/07 19:41:43;;;;;;;;;43.25;33.75;;;;;8.62;69.43;-19443.28;5012366;28;45840;-90
2022/12/07 19:44:21;;;;;;;;;45.50;35.00;;;;;8.92;69.72;-19451.13;5008904;28;45548;-90
2022/12/07 19:46:51;;;;;;;;;36.50;34.50;;;;;8.98;69.52;-19452.75;5001950;28;47297;-88
2022/12/07 19:49:21;;;;;;;;;47.00;38.25;;;;;9.27;69.96;-19460.59;5000490;28;45710;-87
2022/12/07 19:51:53;;;;;;;;;47.00;38.75;;;;;9.28;69.51;-19460.72;5006694;28;45818;-88
2022/12/07 19:54:21;;;;;;;;;45.00;35.25;;;;;9.11;69.75;-19456.25;5006236;28;45721;-89
2022/12/07 19:56:47;;;;;;;;;41.25;35.00;;;;;8.74;69.37;-19446.53;5010453;28;48536;-91
2022/12/07 19:59:14;;;;;;;;;38.25;33.50;;;;;9.29;69.06;-19461.13;5005762;28;45452;-90
2022/12/07 20:01:41;;;;;;;;;37.50;34.75;;;;;9.04;69.34;-19454.38;5004273;28;45593;-90
2022/12/07 20:04:12;;;;;;;;;46.50;37.00;;;;;9.15;69.54;-19457.19;4997488;28;45514;-89
2022/12/07 20:06:38;;;;;;;;;38.00;34.50;;;;;8.96;69.65;-19452.34;5015364;28;47351;-88
2022/12/07 20:09:04;;;;;;;;;46.00;33.75;;;;;8.51;69.42;-19440.44;5023093;28;46068;-92
2022/12/07 20:14:14;;;;;;;;;40.75;33.50;;;;;8.55;69.41;-19441.53;5011331;28;45501;-87
2022/12/07 20:16:40;;;;;;;;;38.75;33.00;;;;;9.16;69.60;-19457.63;4998418;28;47542;-87
2022/12/07 20:19:07;;;;;;;;;36.25;33.00;;;;;8.61;69.34;-19443.16;5010522;28;45424;-88
2022/12/07 20:21:33;;;;;;;;;51.25;40.00;;;;;9.18;69.56;-19458.03;5010647;28;45511;-84
2022/12/07 20:23:59;;;;;;;;;46.00;36.75;;;;;9.02;69.50;-19453.81;4990249;28;45624;-84
2022/12/07 20:26:25;;;;;;;;;37.50;35.25;;;;;9.00;69.34;-19453.28;5005867;28;45584;-86
2022/12/07 20:28:50;;;;;;;;;34.75;32.00;;;;;9.24;69.43;-19459.78;5006342;28;46228;-84
2022/12/07 20:31:16;;;;;;;;;40.50;31.25;;;;;8.72;69.53;-19445.84;5001195;28;45360;-87
2022/12/07 20:33:45;;;;;;;;;34.00;32.50;;;;;8.68;69.33;-19444.78;5006880;28;45932;-86
2022/12/07 20:36:11;;;;;;;;;35.25;32.25;;;;;9.36;69.58;-19462.75;4995975;28;48286;-86
2022/12/07 20:38:37;;;;;;;;;33.25;31.00;;;;;8.88;69.26;-19450.31;5011797;28;46496;-85
2022/12/07 20:41:05;;;;;;;;;46.75;36.50;;;;;9.33;69.35;-19461.94;5013768;28;45480;-85
2022/12/07 20:43:32;;;;;;;;;40.50;36.25;;;;;9.35;69.65;-19462.47;5013680;28;45874;-86
2022/12/07 20:45:57;;;;;;;;;34.25;32.25;;;;;8.97;69.44;-19452.47;5010036;28;48246;-86
2022/12/07 20:48:23;;;;;;;;;45.50;37.25;;;;;9.18;69.49;-19458.16;5010011;28;45512;-86
2022/12/07 20:50:49;;;;;;;;;38.50;34.00;;;;;8.64;69.21;-19443.81;5011063;28;45565;-88
2022/12/07 20:53:14;;;;;;;;;45.00;37.00;;;;;9.32;69.61;-19461.66;4992391;28;46422;-85
2022/12/07 20:55:40;;;;;;;;;48.75;39.25;;;;;9.02;69.52;-19453.81;5008032;28;48242;-91
2022/12/07 20:58:05;;;;;;;;;46.75;38.00;;;;;8.53;69.45;-19441.00;4991905;28;45662;-93
2022/12/07 21:00:32;;;;;;;;;52.50;39.50;;;;;8.34;69.46;-19435.84;5014057;28;45477;-92
2022/12/07 21:02:57;;;;;;;;;50.00;37.25;;;;;9.02;69.70;-19453.81;5012854;28;45460;-93
2022/12/07 21:05:23;;;;;;;;;38.00;34.25;;;;;9.28;69.81;-19460.72;5015543;28;47976;-96
2022/12/07 21:07:49;;;;;;;;;39.50;35.75;;;;;8.18;69.60;-19431.78;5010987;28;45585;-88
2022/12/07 21:10:14;;;;;;;;;39.00;35.00;;;;;8.89;69.97;-19450.44;4985857;28;45542;-89
2022/12/07 21:12:40;;;;;;;;;46.50;36.25;;;;;8.97;69.60;-19452.47;4997549;28;45404;-88
2022/12/07 21:15:07;;;;;;;;;49.00;41.50;;;;;8.93;69.79;-19451.53;5010969;28;45538;-87
2022/12/07 21:17:32;;;;;;;;;53.00;44.00;;;;;9.29;69.75;-19460.97;5012568;28;45432;-87
2022/12/07 21:19:57;;;;;;;;;52.50;40.25;;;;;9.01;69.89;-19453.56;5008170;28;45494;-87
2022/12/07 21:22:23;;;;;;;;;52.75;41.75;;;;;8.50;70.19;-19440.03;5019766;28;45507;-87
2022/12/07 21:24:48;;;;;;;;;58.00;45.25;;;;;9.01;69.75;-19453.69;4992715;28;46985;-87
2022/12/07 21:27:14;;;;;;;;;22.00;16.50;;;;;8.88;69.87;-19450.19;5006110;28;45740;-87
2022/12/07 21:29:39;;;;;;;;;55.25;45.75;;;;;8.88;70.18;-19450.19;5012366;28;45527;-86
2022/12/07 21:32:05;;;;;;;;;57.00;48.00;;;;;9.17;69.81;-19457.88;4998490;28;45987;-88
2022/12/07 21:34:30;;;;;;;;;58.50;47.75;;;;;8.17;69.75;-19431.38;5007478;28;46965;-88
2022/12/07 21:36:56;;;;;;;;;60.25;47.50;;;;;8.21;70.48;-19432.47;5011811;28;46294;-87
2022/12/07 21:39:21;;;;;;;;;61.25;48.00;;;;;8.83;70.47;-19448.81;5011354;28;46343;-88
2022/12/07 21:41:47;;;;;;;;;59.50;48.00;;;;;8.25;70.32;-19433.69;5012507;28;45848;-88
2022/12/07 21:44:12;;;;;;;;;61.75;50.00;;;;;8.78;70.63;-19447.63;5007104;28;47849;-88
2022/12/07 21:46:38;;;;;;;;;63.25;52.00;;;;;9.06;70.73;-19455.03;5014099;28;45547;-87
2022/12/07 21:49:06;;;;;;;;;66.25;50.50;;;;;9.23;70.86;-19459.50;5013377;28;45461;-86
2022/12/07 21:51:32;;;;;;;;;59.00;48.00;;;;;8.73;70.74;-19446.13;5003021;28;45577;-86
2022/12/07 21:53:59;;;;;;;;;62.75;50.50;;;;;8.97;71.10;-19452.47;5014317;28;45616;-88
2022/12/07 21:56:33;;;;;;;;;58.25;46.25;;;;;8.69;70.68;-19445.03;5008321;28;45466;-88
2022/12/07 21:59:02;;;;;;;;;59.75;47.25;;;;;9.22;71.08;-19459.09;5011927;28;45782;-87
2022/12/07 22:01:33;;;;;;;;;60.25;47.25;;;;;9.16;71.14;-19457.47;5004012;28;45583;-87
2022/12/07 22:03:58;;;;;;;;;56.00;46.00;;;;;8.56;71.29;-19441.78;5012262;28;45764;-87
2022/12/07 22:06:25;;;;;;;;;62.75;50.00;;;;;9.19;71.37;-19458.41;5010449;28;45462;-85
2022/12/07 22:08:52;;;;;;;;;56.75;46.00;;;;;8.29;71.20;-19434.50;5015425;28;45503;-89
2022/12/07 22:11:18;;;;;;;;;44.75;36.00;;;;;9.14;71.38;-19456.94;5018981;28;45730;-89
2022/12/07 22:16:30;;;;;;;;;60.75;49.00;;;;;8.44;71.33;-19438.56;5021001;28;45406;-88
2022/12/07 22:18:58;;;;;;;;;68.50;52.00;;;;;9.06;71.48;-19455.03;5012261;28;45545;-91
2022/12/07 22:21:24;;;;;;;;;58.00;48.25;;;;;8.60;71.16;-19442.75;5012068;28;45553;-90
2022/12/07 22:23:50;;;;;;;;;56.50;46.50;;;;;8.65;71.67;-19444.09;5020152;28;47612;-93
2022/12/07 22:26:16;;;;;;;;;64.75;48.25;;;;;8.62;71.10;-19443.28;5023215;28;45582;-90
2022/12/07 22:28:43;;;;;;;;;60.50;46.25;;;;;8.86;71.10;-19449.78;5020032;28;45513;-90
2022/12/07 22:31:11;;;;;;;;;59.25;47.00;;;;;9.10;71.22;-19456.00;5022651;28;45564;-92
2022/12/07 22:33:37;;;;;;;;;52.75;43.25;;;;;9.09;71.38;-19455.72;5007639;28;47114;-89
2022/12/07 22:36:03;;;;;;;;;56.25;46.00;;;;;8.57;70.90;-19442.06;5021153;28;45529;-87
2022/12/07 22:38:28;;;;;;;;;54.25;43.50;;;;;8.79;71.33;-19447.88;5014825;28;45941;-88
2022/12/07 22:40:55;;;;;;;;;53.25;42.50;;;;;9.09;71.57;-19455.84;5013750;28;45890;-88
2022/12/07 22:43:21;;;;;;;;;55.25;42.00;;;;;8.98;71.37;-19452.75;5013241;28;48193;-90
2022/12/07 22:45:56;;;;;;;;;52.75;43.00;;;;;8.57;71.07;-19442.06;5015549;28;46010;-89
2022/12/07 22:48:22;;;;;;;;;54.25;44.50;;;;;8.43;71.30;-19438.28;5003124;28;45851;-89
2022/12/07 22:50:48;;;;;;;;;56.25;47.00;;;;;8.95;71.19;-19452.06;4995291;28;45534;-88
2022/12/07 22:53:13;;;;;;;;;59.00;45.25;;;;;8.63;71.58;-19443.69;5012443;28;46302;-88
2022/12/07 22:55:39;;;;;;;;;53.75;43.75;;;;;9.14;71.54;-19456.94;5011753;28;46024;-96
2022/12/07 22:58:05;;;;;;;;;53.25;45.00;;;;;9.11;71.15;-19456.13;5011006;28;45927;-87
2022/12/07 23:00:31;;;;;;;;;53.75;43.25;;;;;8.39;71.08;-19437.34;5011565;28;45678;-86
2022/12/07 23:02:57;;;;;;;;;60.00;43.75;;;;;8.60;71.28;-19442.88;5014729;28;45585;-87
2022/12/07 23:05:23;;;;;;;;;44.50;36.75;;;;;9.10;71.23;-19456.00;4999764;28;45446;-87
2022/12/07 23:07:48;;;;;;;;;47.75;40.50;;;;;8.80;71.32;-19448.00;5017712;28;45860;-87
2022/12/07 23:10:13;;;;;;;;;54.00;41.50;;;;;9.04;71.19;-19454.50;5016383;28;45418;-88
2022/12/07 23:15:23;;;;;;;;;48.50;39.75;;;;;8.53;71.34;-19441.00;5011070;28;45575;-88
2022/12/07 23:17:48;;;;;;;;;49.00;38.25;;;;;8.13;71.16;-19430.31;5027913;28;45826;-89
2022/12/07 23:20:13;;;;;;;;;43.25;36.25;;;;;8.46;71.15;-19439.09;5008982;28;46097;-90
2022/12/07 23:22:39;;;;;;;;;48.00;39.25;;;;;8.34;71.31;-19435.97;5008649;28;47195;-90
2022/12/07 23:25:05;;;;;;;;;51.00;41.00;;;;;8.26;71.16;-19433.81;5013189;28;45413;-90
2022/12/07 23:27:30;;;;;;;;;48.00;37.75;;;;;8.75;71.42;-19446.66;4992660;28;45522;-91
2022/12/07 23:29:55;;;;;;;;;55.50;44.25;;;;;8.75;71.18;-19446.78;5012258;28;45698;-91
2022/12/07 23:32:21;;;;;;;;;54.00;41.50;;;;;8.88;71.75;-19450.19;4994115;28;47942;-90
2022/12/07 23:34:46;;;;;;;;;49.00;39.25;;;;;8.24;71.63;-19433.28;5021928;28;45457;-92
2022/12/07 23:37:11;;;;;;;;;48.00;40.25;;;;;8.69;71.44;-19445.19;5020899;28;45501;-92
2022/12/07 23:39:37;;;;;;;;;51.00;42.00;;;;;8.59;71.45;-19442.63;5010029;28;45608;-91
2022/12/07 23:42:02;;;;;;;;;51.50;40.00;;;;;8.84;71.53;-19449.22;4995918;28;48330;-91
2022/12/07 23:44:28;;;;;;;;;53.25;41.00;;;;;8.99;71.45;-19453.16;5009907;28;45505;-91
2022/12/07 23:46:53;;;;;;;;;47.25;39.25;;;;;9.01;71.77;-19453.56;5007905;28;45543;-93